Time;durP1;ratioP1;P1;durP2;ratioP2;P2;SDS_P1;SDS_P2;PMS_P1;PMS_P2;Temp;Humidity;BMP_temperature;BMP_pressure;BME280_temperature;BME280_humidity;BME280_pressure;Samples;Min_cycle;Max_cycle;Signal;HPM_P1;HPM_P2
2022/03/13 00:00:26;;;;;;;;;;;;;;;;;;5052693;28;1474;-60
2022/03/13 00:02:52;;;;;;;;;;;;;;;;;;5052920;28;972;-60
2022/03/13 00:05:18;;;;;;;;;;;;;;;;;;5053424;28;959;-60
2022/03/13 00:07:44;;;;;;;;;;;;;;;;;;5052842;28;821;-60
2022/03/13 00:10:10;;;;;;;;;;;;;;;;;;5053040;28;888;-60
2022/03/13 00:12:35;;;;;;;;;;;;;;;;;;5052019;28;1968;-60
2022/03/13 00:15:05;;;;;;;;;;;;;;;;;;5052965;28;868;-60
2022/03/13 00:17:31;;;;;;;;;;;;;;;;;;5052935;28;826;-60
2022/03/13 00:20:00;;;;;;;;;;;;;;;;;;5034421;28;1042;-60
2022/03/13 00:22:30;;;;;;;;;;;;;;;;;;5052882;28;789;-60
2022/03/13 00:24:55;;;;;;;;;;;;;;;;;;5052753;28;875;-60
2022/03/13 00:27:21;;;;;;;;;;;;;;;;;;5053106;28;852;-60
2022/03/13 00:29:46;;;;;;;;;;;;;;;;;;5034770;28;886;-60
2022/03/13 00:32:12;;;;;;;;;;;;;;;;;;5053016;28;1290;-60
2022/03/13 00:34:38;;;;;;;;;;;;;;;;;;5034206;28;1946;-60
2022/03/13 00:37:03;;;;;;;;;;;;;;;;;;5052992;28;868;-60
2022/03/13 00:39:28;;;;;;;;;;;;;;;;;;5052527;28;814;-60
2022/03/13 00:41:53;;;;;;;;;;;;;;;;;;5052287;28;923;-60
2022/03/13 00:44:19;;;;;;;;;;;;;;;;;;5052672;28;817;-60
2022/03/13 00:46:45;;;;;;;;;;;;;;;;;;5033873;28;915;-60
2022/03/13 00:49:10;;;;;;;;;;;;;;;;;;5052450;28;959;-60
2022/03/13 00:51:36;;;;;;;;;;;;;;;;;;5051820;28;835;-60
2022/03/13 00:54:01;;;;;;;;;;;;;;;;;;5034010;28;1901;-60
2022/03/13 00:56:26;;;;;;;;;;;;;;;;;;5052500;28;994;-60
2022/03/13 00:58:52;;;;;;;;;;;;;;;;;;5051621;28;850;-60
2022/03/13 01:01:17;;;;;;;;;;;;;;;;;;5051938;28;1196;-60
2022/03/13 01:03:43;;;;;;;;;;;;;;;;;;5051472;28;936;-61
2022/03/13 01:06:08;;;;;;;;;;;;;;;;;;5051882;28;833;-60
2022/03/13 01:08:34;;;;;;;;;;;;;;;;;;5052253;28;873;-60
2022/03/13 01:11:00;;;;;;;;;;;;;;;;;;5052016;28;781;-59
2022/03/13 01:13:26;;;;;;;;;;;;;;;;;;5052043;28;1981;-60
2022/03/13 01:15:55;;;;;;;;;;;;;;;;;;5051470;28;817;-60
2022/03/13 01:18:21;;;;;;;;;;;;;;;;;;5052443;28;758;-60
2022/03/13 01:20:47;;;;;;;;;;;;;;;;;;5051725;28;916;-60
2022/03/13 01:23:14;;;;;;;;;;;;;;;;;;5051682;28;1080;-59
2022/03/13 01:25:39;;;;;;;;;;;;;;;;;;5051567;28;831;-60
2022/03/13 01:28:04;;;;;;;;;;;;;;;;;;5051807;28;848;-60
2022/03/13 01:30:30;;;;;;;;;;;;;;;;;;5033940;28;853;-59
2022/03/13 01:32:55;;;;;;;;;;;;;;;;;;5051805;28;1953;-60
2022/03/13 01:35:21;;;;;;;;;;;;;;;;;;5052267;28;845;-59
2022/03/13 01:37:47;;;;;;;;;;;;;;;;;;5033923;28;892;-60
2022/03/13 01:40:14;;;;;;;;;;;;;;;;;;5051994;28;908;-60
2022/03/13 01:42:44;;;;;;;;;;;;;;;;;;5051400;28;999;-59
2022/03/13 01:45:12;;;;;;;;;;;;;;;;;;5051527;28;1202;-59
2022/03/13 01:47:38;;;;;;;;;;;;;;;;;;5050643;28;939;-59
2022/03/13 01:50:06;;;;;;;;;;;;;;;;;;5051562;28;996;-60
2022/03/13 01:52:32;;;;;;;;;;;;;;;;;;5033585;28;1960;-59
2022/03/13 01:54:58;;;;;;;;;;;;;;;;;;5051413;28;865;-60
2022/03/13 01:57:24;;;;;;;;;;;;;;;;;;5051848;28;906;-59
2022/03/13 01:59:51;;;;;;;;;;;;;;;;;;5051509;28;1239;-59
2022/03/13 02:02:16;;;;;;;;;;;;;;;;;;5033739;28;1215;-59
2022/03/13 02:04:42;;;;;;;;;;;;;;;;;;5051573;28;1050;-60
2022/03/13 02:07:07;;;;;;;;;;;;;;;;;;5051561;28;983;-60
2022/03/13 02:09:33;;;;;;;;;;;;;;;;;;5051661;28;1176;-59
2022/03/13 02:11:59;;;;;;;;;;;;;;;;;;5050701;28;876;-59
2022/03/13 02:14:24;;;;;;;;;;;;;;;;;;5051579;28;1917;-59
2022/03/13 02:16:50;;;;;;;;;;;;;;;;;;5051370;28;821;-60
2022/03/13 02:19:17;;;;;;;;;;;;;;;;;;5051583;28;1006;-59
2022/03/13 02:21:48;;;;;;;;;;;;;;;;;;5051349;28;796;-59
2022/03/13 02:24:17;;;;;;;;;;;;;;;;;;5051559;28;848;-60
2022/03/13 02:26:44;;;;;;;;;;;;;;;;;;5051317;28;932;-59
2022/03/13 02:29:11;;;;;;;;;;;;;;;;;;5050662;28;896;-60
2022/03/13 02:31:37;;;;;;;;;;;;;;;;;;5051060;28;991;-59
2022/03/13 02:34:03;;;;;;;;;;;;;;;;;;5050642;28;1906;-59
2022/03/13 02:36:31;;;;;;;;;;;;;;;;;;5051437;28;857;-60
2022/03/13 02:38:57;;;;;;;;;;;;;;;;;;5050632;28;905;-59
2022/03/13 02:41:25;;;;;;;;;;;;;;;;;;5051508;28;841;-60
2022/03/13 02:43:50;;;;;;;;;;;;;;;;;;5050864;28;876;-59
2022/03/13 02:46:20;;;;;;;;;;;;;;;;;;5032972;28;934;-60
2022/03/13 02:48:46;;;;;;;;;;;;;;;;;;5033336;28;868;-60
2022/03/13 02:51:11;;;;;;;;;;;;;;;;;;5051046;28;852;-60
2022/03/13 02:53:37;;;;;;;;;;;;;;;;;;5050517;28;1984;-59
2022/03/13 02:56:03;;;;;;;;;;;;;;;;;;5050674;28;1215;-59
2022/03/13 02:58:29;;;;;;;;;;;;;;;;;;5051861;28;885;-60
2022/03/13 03:00:56;;;;;;;;;;;;;;;;;;5054080;28;1101;-59
2022/03/13 03:03:22;;;;;;;;;;;;;;;;;;5054354;28;968;-60
2022/03/13 03:05:47;;;;;;;;;;;;;;;;;;5054206;28;825;-60
2022/03/13 03:08:13;;;;;;;;;;;;;;;;;;5053585;28;989;-60
2022/03/13 03:10:38;;;;;;;;;;;;;;;;;;5054018;28;821;-60
2022/03/13 03:13:04;;;;;;;;;;;;;;;;;;5053703;28;1914;-60
2022/03/13 03:15:30;;;;;;;;;;;;;;;;;;5053541;28;845;-60
2022/03/13 03:17:55;;;;;;;;;;;;;;;;;;5053497;28;1062;-60
2022/03/13 03:20:21;;;;;;;;;;;;;;;;;;5019597;28;1871;-60
2022/03/13 03:22:47;;;;;;;;;;;;;;;;;;5053702;28;876;-60
2022/03/13 03:25:12;;;;;;;;;;;;;;;;;;5053492;28;876;-60
2022/03/13 03:27:41;;;;;;;;;;;;;;;;;;5053916;28;762;-60
2022/03/13 03:30:06;;;;;;;;;;;;;;;;;;5053909;28;798;-60
2022/03/13 03:32:32;;;;;;;;;;;;;;;;;;5053753;28;1938;-60
2022/03/13 03:34:57;;;;;;;;;;;;;;;;;;5053762;28;802;-60
2022/03/13 03:37:22;;;;;;;;;;;;;;;;;;5054062;28;825;-60
2022/03/13 03:39:47;;;;;;;;;;;;;;;;;;5053878;28;839;-60
2022/03/13 03:42:13;;;;;;;;;;;;;;;;;;5053443;28;833;-60
2022/03/13 03:44:38;;;;;;;;;;;;;;;;;;5053612;28;979;-60
2022/03/13 03:47:03;;;;;;;;;;;;;;;;;;5053310;28;876;-60
2022/03/13 03:49:29;;;;;;;;;;;;;;;;;;5053617;28;821;-60
2022/03/13 03:51:54;;;;;;;;;;;;;;;;;;5053843;28;1058;-60
2022/03/13 03:54:20;;;;;;;;;;;;;;;;;;5053264;28;1955;-60
2022/03/13 03:56:45;;;;;;;;;;;;;;;;;;5068613;28;1797;-60
2022/03/13 03:59:10;;;;;;;;;;;;;;;;;;5053356;28;1100;-60
2022/03/13 04:01:40;;;;;;;;;;;;;;;;;;5053238;28;845;-60
2022/03/13 04:04:06;;;;;;;;;;;;;;;;;;5052787;28;831;-60
2022/03/13 04:06:33;;;;;;;;;;;;;;;;;;5053312;28;867;-60
2022/03/13 04:08:58;;;;;;;;;;;;;;;;;;5052894;28;880;-60
2022/03/13 04:11:23;;;;;;;;;;;;;;;;;;5051499;28;1058;-60
2022/03/13 04:13:49;;;;;;;;;;;;;;;;;;5052135;28;1918;-60
2022/03/13 04:16:14;;;;;;;;;;;;;;;;;;5052179;28;824;-60
2022/03/13 04:18:40;;;;;;;;;;;;;;;;;;5052191;28;884;-60
2022/03/13 04:21:05;;;;;;;;;;;;;;;;;;5051989;28;907;-60
2022/03/13 04:23:34;;;;;;;;;;;;;;;;;;5034387;28;823;-60
2022/03/13 04:26:00;;;;;;;;;;;;;;;;;;5051982;28;1122;-60
2022/03/13 04:28:25;;;;;;;;;;;;;;;;;;5052060;28;896;-60
2022/03/13 04:30:56;;;;;;;;;;;;;;;;;;5052284;28;844;-60
2022/03/13 04:33:22;;;;;;;;;;;;;;;;;;5051775;28;1894;-60
2022/03/13 04:35:48;;;;;;;;;;;;;;;;;;5034046;28;894;-60
2022/03/13 04:38:14;;;;;;;;;;;;;;;;;;5052026;28;895;-60
2022/03/13 04:40:39;;;;;;;;;;;;;;;;;;5034327;28;939;-60
2022/03/13 04:43:07;;;;;;;;;;;;;;;;;;5052209;28;951;-60
2022/03/13 04:45:34;;;;;;;;;;;;;;;;;;5052031;28;1260;-60
2022/03/13 04:47:59;;;;;;;;;;;;;;;;;;5051860;28;900;-60
2022/03/13 04:50:24;;;;;;;;;;;;;;;;;;5052093;28;943;-60
2022/03/13 04:52:50;;;;;;;;;;;;;;;;;;5051800;28;1906;-60
2022/03/13 04:55:17;;;;;;;;;;;;;;;;;;5034167;28;2016;-60
2022/03/13 04:57:42;;;;;;;;;;;;;;;;;;5051395;28;931;-59
2022/03/13 05:00:07;;;;;;;;;;;;;;;;;;5052052;28;1081;-59
2022/03/13 05:02:33;;;;;;;;;;;;;;;;;;5051444;28;991;-59
2022/03/13 05:04:59;;;;;;;;;;;;;;;;;;5033544;28;845;-59
2022/03/13 05:07:25;;;;;;;;;;;;;;;;;;5033488;28;844;-59
2022/03/13 05:09:50;;;;;;;;;;;;;;;;;;5051479;28;899;-59
2022/03/13 05:12:16;;;;;;;;;;;;;;;;;;5052078;28;746;-60
2022/03/13 05:14:42;;;;;;;;;;;;;;;;;;5051071;28;1914;-59
2022/03/13 05:17:07;;;;;;;;;;;;;;;;;;5051423;28;904;-59
2022/03/13 05:19:32;;;;;;;;;;;;;;;;;;5051427;28;959;-59
2022/03/13 05:21:58;;;;;;;;;;;;;;;;;;5051552;28;947;-59
2022/03/13 05:24:24;;;;;;;;;;;;;;;;;;5033376;28;888;-59
2022/03/13 05:26:49;;;;;;;;;;;;;;;;;;5051313;28;950;-59
2022/03/13 05:29:14;;;;;;;;;;;;;;;;;;5034032;28;920;-59
2022/03/13 05:31:40;;;;;;;;;;;;;;;;;;5051571;28;974;-59
2022/03/13 05:34:07;;;;;;;;;;;;;;;;;;5051867;28;1898;-59
2022/03/13 05:36:32;;;;;;;;;;;;;;;;;;5051794;28;849;-59
2022/03/13 05:38:57;;;;;;;;;;;;;;;;;;5051713;28;821;-59
2022/03/13 05:41:22;;;;;;;;;;;;;;;;;;5051535;28;908;-59
2022/03/13 05:43:49;;;;;;;;;;;;;;;;;;5051855;28;817;-60
2022/03/13 05:46:14;;;;;;;;;;;;;;;;;;5050950;28;917;-60
2022/03/13 05:48:40;;;;;;;;;;;;;;;;;;5051173;28;995;-60
2022/03/13 05:51:05;;;;;;;;;;;;;;;;;;5033379;28;775;-60
2022/03/13 05:53:30;;;;;;;;;;;;;;;;;;5050755;28;1886;-60
2022/03/13 05:55:55;;;;;;;;;;;;;;;;;;5050961;28;1002;-60
2022/03/13 05:58:20;;;;;;;;;;;;;;;;;;5033093;28;1306;-59
2022/03/13 06:01:01;;;;;;;;;;;;;;;;;;5051425;28;1075;-60
2022/03/13 06:03:26;;;;;;;;;;;;;;;;;;5035421;28;829;-60
2022/03/13 06:05:52;;;;;;;;;;;;;;;;;;5051107;28;872;-60
2022/03/13 06:08:17;;;;;;;;;;;;;;;;;;5051566;28;876;-60
2022/03/13 06:10:42;;;;;;;;;;;;;;;;;;5051820;28;876;-60
2022/03/13 06:13:08;;;;;;;;;;;;;;;;;;5052258;28;1906;-60
2022/03/13 06:15:34;;;;;;;;;;;;;;;;;;5051604;28;1022;-60
2022/03/13 06:17:59;;;;;;;;;;;;;;;;;;5033321;28;810;-60
2022/03/13 06:20:24;;;;;;;;;;;;;;;;;;5051360;28;1066;-60
2022/03/13 06:22:50;;;;;;;;;;;;;;;;;;5051588;28;806;-60
2022/03/13 06:25:16;;;;;;;;;;;;;;;;;;5033902;28;1697;-60
2022/03/13 06:27:42;;;;;;;;;;;;;;;;;;5051573;28;1255;-60
2022/03/13 06:30:13;;;;;;;;;;;;;;;;;;5051215;28;1148;-60
2022/03/13 06:32:39;;;;;;;;;;;;;;;;;;5050803;28;1898;-60
2022/03/13 06:35:04;;;;;;;;;;;;;;;;;;5054018;28;853;-60
2022/03/13 06:37:29;;;;;;;;;;;;;;;;;;5054298;28;861;-60
2022/03/13 06:39:55;;;;;;;;;;;;;;;;;;5054480;28;872;-60
2022/03/13 06:42:20;;;;;;;;;;;;;;;;;;5055492;28;864;-60
2022/03/13 06:44:45;;;;;;;;;;;;;;;;;;5036514;28;1697;-60
2022/03/13 06:47:11;;;;;;;;;;;;;;;;;;5054870;28;1071;-60
2022/03/13 06:49:36;;;;;;;;;;;;;;;;;;5054098;28;983;-60
2022/03/13 06:52:02;;;;;;;;;;;;;;;;;;5036592;28;1628;-60
2022/03/13 06:54:27;;;;;;;;;;;;;;;;;;5036298;28;1909;-60
2022/03/13 06:56:52;;;;;;;;;;;;;;;;;;5054351;28;889;-60
2022/03/13 06:59:18;;;;;;;;;;;;;;;;;;5054618;28;1220;-60
2022/03/13 07:01:43;;;;;;;;;;;;;;;;;;5054708;28;852;-60
2022/03/13 07:04:09;;;;;;;;;;;;;;;;;;5054464;28;816;-60
2022/03/13 07:06:34;;;;;;;;;;;;;;;;;;5053998;28;888;-60
2022/03/13 07:08:59;;;;;;;;;;;;;;;;;;5053838;28;847;-60
2022/03/13 07:11:26;;;;;;;;;;;;;;;;;;5054637;28;888;-60
2022/03/13 07:13:53;;;;;;;;;;;;;;;;;;5054085;28;1906;-60
2022/03/13 07:16:19;;;;;;;;;;;;;;;;;;5036726;28;1435;-60
2022/03/13 07:18:44;;;;;;;;;;;;;;;;;;5036439;28;865;-60
2022/03/13 07:21:10;;;;;;;;;;;;;;;;;;5054547;28;1015;-60
2022/03/13 07:23:35;;;;;;;;;;;;;;;;;;5054535;28;924;-60
2022/03/13 07:26:01;;;;;;;;;;;;;;;;;;5053958;28;1006;-60
2022/03/13 07:28:26;;;;;;;;;;;;;;;;;;5036859;28;817;-59
2022/03/13 07:30:52;;;;;;;;;;;;;;;;;;5036301;28;920;-60
2022/03/13 07:33:17;;;;;;;;;;;;;;;;;;5054466;28;1941;-60
2022/03/13 07:35:44;;;;;;;;;;;;;;;;;;5054084;28;1231;-60
2022/03/13 07:38:09;;;;;;;;;;;;;;;;;;5054546;28;833;-60
2022/03/13 07:40:35;;;;;;;;;;;;;;;;;;5053854;28;809;-60
2022/03/13 07:43:00;;;;;;;;;;;;;;;;;;5036132;28;1261;-60
2022/03/13 07:45:26;;;;;;;;;;;;;;;;;;5052813;28;910;-60
2022/03/13 07:47:54;;;;;;;;;;;;;;;;;;5053809;28;887;-60
2022/03/13 07:50:20;;;;;;;;;;;;;;;;;;5054780;28;848;-60
2022/03/13 07:52:45;;;;;;;;;;;;;;;;;;5053695;28;1961;-60
2022/03/13 07:55:11;;;;;;;;;;;;;;;;;;5035731;28;1049;-60
2022/03/13 07:57:36;;;;;;;;;;;;;;;;;;5053579;28;895;-60
2022/03/13 08:00:02;;;;;;;;;;;;;;;;;;5034910;28;1395;-60
2022/03/13 08:02:28;;;;;;;;;;;;;;;;;;5033959;28;1925;-60
2022/03/13 08:04:53;;;;;;;;;;;;;;;;;;5053056;28;848;-61
2022/03/13 08:07:19;;;;;;;;;;;;;;;;;;5053585;28;893;-61
2022/03/13 08:09:44;;;;;;;;;;;;;;;;;;5053044;28;825;-60
2022/03/13 08:12:09;;;;;;;;;;;;;;;;;;5052954;28;822;-61
2022/03/13 08:14:34;;;;;;;;;;;;;;;;;;5053076;28;1910;-60
2022/03/13 08:17:00;;;;;;;;;;;;;;;;;;5052927;28;817;-60
2022/03/13 08:19:25;;;;;;;;;;;;;;;;;;5034890;28;920;-60
2022/03/13 08:21:50;;;;;;;;;;;;;;;;;;5052635;28;845;-60
2022/03/13 08:24:17;;;;;;;;;;;;;;;;;;5052639;28;931;-60
2022/03/13 08:26:43;;;;;;;;;;;;;;;;;;5034751;28;1075;-60
2022/03/13 08:29:08;;;;;;;;;;;;;;;;;;5052531;28;955;-60
2022/03/13 08:31:34;;;;;;;;;;;;;;;;;;5052755;28;817;-60
2022/03/13 08:34:00;;;;;;;;;;;;;;;;;;5052326;28;1898;-60
2022/03/13 08:36:25;;;;;;;;;;;;;;;;;;5052424;28;876;-60
2022/03/13 08:38:51;;;;;;;;;;;;;;;;;;5052059;28;781;-60
2022/03/13 08:41:16;;;;;;;;;;;;;;;;;;5052601;28;904;-60
2022/03/13 08:43:41;;;;;;;;;;;;;;;;;;5052225;28;1022;-60
2022/03/13 08:46:08;;;;;;;;;;;;;;;;;;5052540;28;896;-60
2022/03/13 08:48:34;;;;;;;;;;;;;;;;;;5051998;28;904;-60
2022/03/13 08:50:59;;;;;;;;;;;;;;;;;;5051859;28;954;-60
2022/03/13 08:53:25;;;;;;;;;;;;;;;;;;5052325;28;1898;-60
2022/03/13 08:55:50;;;;;;;;;;;;;;;;;;5051508;28;805;-60
2022/03/13 08:58:15;;;;;;;;;;;;;;;;;;5034602;28;1124;-60
2022/03/13 09:00:42;;;;;;;;;;;;;;;;;;5052282;28;1058;-60
2022/03/13 09:03:08;;;;;;;;;;;;;;;;;;5052418;28;809;-60
2022/03/13 09:05:34;;;;;;;;;;;;;;;;;;5052782;28;758;-60
2022/03/13 09:07:59;;;;;;;;;;;;;;;;;;5051910;28;884;-60
2022/03/13 09:10:24;;;;;;;;;;;;;;;;;;5034036;28;1208;-60
2022/03/13 09:12:50;;;;;;;;;;;;;;;;;;5052799;28;1930;-60
2022/03/13 09:15:15;;;;;;;;;;;;;;;;;;5052465;28;904;-60
2022/03/13 09:17:41;;;;;;;;;;;;;;;;;;5051844;28;845;-60
2022/03/13 09:20:06;;;;;;;;;;;;;;;;;;5052203;28;876;-60
2022/03/13 09:22:32;;;;;;;;;;;;;;;;;;5052479;28;1047;-60
2022/03/13 09:25:00;;;;;;;;;;;;;;;;;;5051973;28;833;-60
2022/03/13 09:27:26;;;;;;;;;;;;;;;;;;5034496;28;755;-60
2022/03/13 09:29:53;;;;;;;;;;;;;;;;;;5033776;28;904;-60
2022/03/13 09:32:18;;;;;;;;;;;;;;;;;;5052454;28;864;-60
2022/03/13 09:34:44;;;;;;;;;;;;;;;;;;5051877;28;1905;-60
2022/03/13 09:37:11;;;;;;;;;;;;;;;;;;5051791;28;999;-60
2022/03/13 09:39:36;;;;;;;;;;;;;;;;;;5051603;28;899;-60
2022/03/13 09:42:01;;;;;;;;;;;;;;;;;;5051226;28;820;-60
2022/03/13 09:44:28;;;;;;;;;;;;;;;;;;5033553;28;794;-60
2022/03/13 09:46:53;;;;;;;;;;;;;;;;;;5050874;28;871;-60
2022/03/13 09:49:20;;;;;;;;;;;;;;;;;;5051661;28;852;-60
2022/03/13 09:51:46;;;;;;;;;;;;;;;;;;5051239;28;859;-60
2022/03/13 09:54:11;;;;;;;;;;;;;;;;;;5033406;28;1910;-60
2022/03/13 09:56:38;;;;;;;;;;;;;;;;;;5032975;28;996;-60
2022/03/13 09:59:03;;;;;;;;;;;;;;;;;;5051123;28;879;-60
2022/03/13 10:01:29;;;;;;;;;;;;;;;;;;5050873;28;1066;-60
2022/03/13 10:03:54;;;;;;;;;;;;;;;;;;5051172;28;797;-60
2022/03/13 10:06:20;;;;;;;;;;;;;;;;;;5051102;28;892;-60
2022/03/13 10:08:46;;;;;;;;;;;;;;;;;;5050745;28;836;-60
2022/03/13 10:11:11;;;;;;;;;;;;;;;;;;5033241;28;1293;-60
2022/03/13 10:13:46;;;;;;;;;;;;;;;;;;5051020;28;1939;-60
2022/03/13 10:16:34;;;;;;;;;;;;;;;;;;5033272;28;1731;-60
2022/03/13 10:19:12;;;;;;;;;;;;;;;;;;5050767;28;833;-60
2022/03/13 10:21:38;;;;;;;;;;;;;;;;;;5051160;28;821;-60
2022/03/13 10:24:10;;;;;;;;;;;;;;;;;;5050510;28;880;-60
2022/03/13 10:26:35;;;;;;;;;;;;;;;;;;5050737;28;809;-60
2022/03/13 10:29:01;;;;;;;;;;;;;;;;;;5050474;28;934;-60
2022/03/13 10:31:27;;;;;;;;;;;;;;;;;;5051254;28;842;-60
2022/03/13 10:33:57;;;;;;;;;;;;;;;;;;5050365;28;1894;-60
2022/03/13 10:36:31;;;;;;;;;;;;;;;;;;5050874;28;844;-60
2022/03/13 10:38:57;;;;;;;;;;;;;;;;;;5032426;28;916;-60
2022/03/13 10:41:42;;;;;;;;;;;;;;;;;;5051033;28;975;-60
2022/03/13 10:44:13;;;;;;;;;;;;;;;;;;5050404;28;926;-60
2022/03/13 10:46:40;;;;;;;;;;;;;;;;;;5051373;28;864;-60
2022/03/13 10:49:08;;;;;;;;;;;;;;;;;;5050628;28;841;-60
2022/03/13 10:51:35;;;;;;;;;;;;;;;;;;5051190;28;825;-60
2022/03/13 10:54:01;;;;;;;;;;;;;;;;;;5050588;28;1953;-60
2022/03/13 10:56:27;;;;;;;;;;;;;;;;;;5051223;28;877;-60
2022/03/13 10:58:52;;;;;;;;;;;;;;;;;;5050918;28;945;-60
2022/03/13 11:01:18;;;;;;;;;;;;;;;;;;5051223;28;1319;-61
2022/03/13 11:03:54;;;;;;;;;;;;;;;;;;5033204;28;845;-60
2022/03/13 11:06:20;;;;;;;;;;;;;;;;;;5051616;28;971;-60
2022/03/13 11:08:46;;;;;;;;;;;;;;;;;;5051064;28;900;-61
2022/03/13 11:11:16;;;;;;;;;;;;;;;;;;5051280;28;816;-60
2022/03/13 11:13:42;;;;;;;;;;;;;;;;;;5051507;28;1976;-60
2022/03/13 11:16:10;;;;;;;;;;;;;;;;;;5032549;28;830;-60
2022/03/13 11:18:36;;;;;;;;;;;;;;;;;;5050780;28;813;-60
2022/03/13 11:21:06;;;;;;;;;;;;;;;;;;5053777;28;807;-60
2022/03/13 11:23:32;;;;;;;;;;;;;;;;;;5036671;28;1262;-60
2022/03/13 11:25:57;;;;;;;;;;;;;;;;;;5036439;28;876;-60
2022/03/13 11:28:23;;;;;;;;;;;;;;;;;;5053937;28;979;-60
2022/03/13 11:30:49;;;;;;;;;;;;;;;;;;5054322;28;760;-60
2022/03/13 11:33:34;;;;;;;;;;;;;;;;;;5053965;28;1898;-60
2022/03/13 11:36:18;;;;;;;;;;;;;;;;;;5053721;28;911;-60
2022/03/13 11:39:03;;;;;;;;;;;;;;;;;;5053620;28;991;-60
2022/03/13 11:41:32;;;;;;;;;;;;;;;;;;5053708;28;916;-60
2022/03/13 11:44:01;;;;;;;;;;;;;;;;;;5053418;28;879;-61
2022/03/13 11:46:43;;;;;;;;;;;;;;;;;;5053550;28;828;-60
2022/03/13 11:49:27;;;;;;;;;;;;;;;;;;5052773;28;1110;-60
2022/03/13 11:52:14;;;;;;;;;;;;;;;;;;5053308;28;1064;-61
2022/03/13 11:54:56;;;;;;;;;;;;;;;;;;5053535;28;1971;-60
2022/03/13 11:57:40;;;;;;;;;;;;;;;;;;5053035;28;1108;-60
2022/03/13 12:00:11;;;;;;;;;;;;;;;;;;5052593;28;1164;-60
2022/03/13 12:02:42;;;;;;;;;;;;;;;;;;5053417;28;955;-60
2022/03/13 12:05:26;;;;;;;;;;;;;;;;;;5052903;28;805;-60
2022/03/13 12:07:52;;;;;;;;;;;;;;;;;;5053272;28;881;-60
2022/03/13 12:10:29;;;;;;;;;;;;;;;;;;5052748;28;848;-60
2022/03/13 12:13:03;;;;;;;;;;;;;;;;;;5052566;28;1971;-60
2022/03/13 12:15:29;;;;;;;;;;;;;;;;;;5035266;28;931;-60
2022/03/13 12:17:56;;;;;;;;;;;;;;;;;;5053090;28;892;-60
2022/03/13 12:20:26;;;;;;;;;;;;;;;;;;5052991;28;942;-60
2022/03/13 12:22:54;;;;;;;;;;;;;;;;;;5053278;28;863;-60
2022/03/13 12:25:27;;;;;;;;;;;;;;;;;;5052978;28;883;-60
2022/03/13 12:27:54;;;;;;;;;;;;;;;;;;5053263;28;896;-60
2022/03/13 12:30:27;;;;;;;;;;;;;;;;;;5053110;28;991;-60
2022/03/13 12:33:00;;;;;;;;;;;;;;;;;;5052369;28;1906;-60
2022/03/13 12:35:26;;;;;;;;;;;;;;;;;;5052461;28;907;-60
2022/03/13 12:37:52;;;;;;;;;;;;;;;;;;5052866;28;805;-60
2022/03/13 12:40:22;;;;;;;;;;;;;;;;;;5052444;28;884;-60
2022/03/13 12:42:52;;;;;;;;;;;;;;;;;;5036044;28;865;-59
2022/03/13 12:45:18;;;;;;;;;;;;;;;;;;5052525;28;888;-60
2022/03/13 12:47:47;;;;;;;;;;;;;;;;;;5052277;28;861;-60
2022/03/13 12:50:13;;;;;;;;;;;;;;;;;;5052299;28;829;-60
2022/03/13 12:52:40;;;;;;;;;;;;;;;;;;5052546;28;915;-60
2022/03/13 12:55:07;;;;;;;;;;;;;;;;;;5017410;28;1969;-59
2022/03/13 12:57:33;;;;;;;;;;;;;;;;;;5052368;28;877;-60
2022/03/13 12:59:58;;;;;;;;;;;;;;;;;;5051484;28;1389;-60
2022/03/13 13:02:31;;;;;;;;;;;;;;;;;;5051693;28;809;-60
2022/03/13 13:05:00;;;;;;;;;;;;;;;;;;5052242;28;853;-60
2022/03/13 13:07:31;;;;;;;;;;;;;;;;;;5034076;28;837;-60
2022/03/13 13:09:57;;;;;;;;;;;;;;;;;;5052235;28;895;-60
2022/03/13 13:12:27;;;;;;;;;;;;;;;;;;5052048;28;919;-60
2022/03/13 13:14:52;;;;;;;;;;;;;;;;;;5052377;28;1967;-60
2022/03/13 13:17:20;;;;;;;;;;;;;;;;;;5052311;28;777;-60
2022/03/13 13:19:50;;;;;;;;;;;;;;;;;;5052620;28;817;-60
2022/03/13 13:22:22;;;;;;;;;;;;;;;;;;5052444;28;845;-60
2022/03/13 13:24:51;;;;;;;;;;;;;;;;;;5052623;28;927;-60
2022/03/13 13:27:35;;;;;;;;;;;;;;;;;;5051851;28;870;-60
2022/03/13 13:30:18;;;;;;;;;;;;;;;;;;5051821;28;892;-60
2022/03/13 13:33:10;;;;;;;;;;;;;;;;;;5051931;28;914;-60
2022/03/13 13:35:43;;;;;;;;;;;;;;;;;;5048012;28;1202;-60
2022/03/13 13:38:14;;;;;;;;;;;;;;;;;;5032262;28;1223;-60
2022/03/13 13:40:41;;;;;;;;;;;;;;;;;;5051398;28;852;-60
2022/03/13 13:43:11;;;;;;;;;;;;;;;;;;5051098;28;933;-60
2022/03/13 13:45:38;;;;;;;;;;;;;;;;;;5051643;28;869;-60
2022/03/13 13:48:16;;;;;;;;;;;;;;;;;;5051257;28;817;-60
2022/03/13 13:50:43;;;;;;;;;;;;;;;;;;5051380;28;805;-60
2022/03/13 13:53:09;;;;;;;;;;;;;;;;;;5050948;28;1956;-60
2022/03/13 13:55:35;;;;;;;;;;;;;;;;;;5051465;28;758;-60
2022/03/13 13:58:34;;;;;;;;;;;;;;;;;;5050923;28;993;-60
2022/03/13 14:01:18;;;;;;;;;;;;;;;;;;5000870;28;1376;-60
2022/03/13 14:03:44;;;;;;;;;;;;;;;;;;5051818;28;892;-60
2022/03/13 14:06:09;;;;;;;;;;;;;;;;;;5051296;28;891;-61
2022/03/13 14:08:34;;;;;;;;;;;;;;;;;;5051030;28;1046;-60
2022/03/13 14:10:59;;;;;;;;;;;;;;;;;;5050843;28;967;-60
2022/03/13 14:13:25;;;;;;;;;;;;;;;;;;5050955;28;1914;-60
2022/03/13 14:15:50;;;;;;;;;;;;;;;;;;5051648;28;1042;-60
2022/03/13 14:18:15;;;;;;;;;;;;;;;;;;5051853;28;1090;-60
2022/03/13 14:20:41;;;;;;;;;;;;;;;;;;5053052;28;825;-60
2022/03/13 14:23:06;;;;;;;;;;;;;;;;;;5053115;28;950;-60
2022/03/13 14:25:32;;;;;;;;;;;;;;;;;;5052208;28;991;-60
2022/03/13 14:27:57;;;;;;;;;;;;;;;;;;5052581;28;797;-61
2022/03/13 14:30:22;;;;;;;;;;;;;;;;;;5052266;28;809;-60
2022/03/13 14:32:48;;;;;;;;;;;;;;;;;;5068222;28;1321;-61
2022/03/13 14:35:13;;;;;;;;;;;;;;;;;;5018171;28;1918;-60
2022/03/13 14:37:40;;;;;;;;;;;;;;;;;;5053637;28;868;-60
2022/03/13 14:40:06;;;;;;;;;;;;;;;;;;5053542;28;833;-60
2022/03/13 14:42:31;;;;;;;;;;;;;;;;;;5054597;28;849;-60
2022/03/13 14:44:56;;;;;;;;;;;;;;;;;;5054862;28;864;-60
2022/03/13 14:47:22;;;;;;;;;;;;;;;;;;5055169;28;923;-60
2022/03/13 14:49:48;;;;;;;;;;;;;;;;;;5055551;28;909;-60
2022/03/13 14:52:13;;;;;;;;;;;;;;;;;;5054534;28;881;-60
2022/03/13 14:54:38;;;;;;;;;;;;;;;;;;5056132;28;2179;-60
2022/03/13 14:57:03;;;;;;;;;;;;;;;;;;5056848;28;1454;-60
2022/03/13 14:59:29;;;;;;;;;;;;;;;;;;5054645;28;762;-60
2022/03/13 15:01:55;;;;;;;;;;;;;;;;;;5054437;28;1328;-60
2022/03/13 15:04:20;;;;;;;;;;;;;;;;;;5054764;28;911;-60
2022/03/13 15:06:48;;;;;;;;;;;;;;;;;;5054760;28;845;-60
2022/03/13 15:09:13;;;;;;;;;;;;;;;;;;5054016;28;881;-60
2022/03/13 15:11:39;;;;;;;;;;;;;;;;;;5053919;28;1061;-61
2022/03/13 15:14:04;;;;;;;;;;;;;;;;;;5045181;28;1914;-61
2022/03/13 15:16:29;;;;;;;;;;;;;;;;;;5053733;28;1216;-60
2022/03/13 15:18:55;;;;;;;;;;;;;;;;;;5054318;28;853;-60
2022/03/13 15:21:21;;;;;;;;;;;;;;;;;;5054666;28;876;-60
2022/03/13 15:23:46;;;;;;;;;;;;;;;;;;5054576;28;844;-60
2022/03/13 15:26:11;;;;;;;;;;;;;;;;;;5054108;28;833;-60
2022/03/13 15:28:37;;;;;;;;;;;;;;;;;;5053999;28;899;-60
2022/03/13 15:31:03;;;;;;;;;;;;;;;;;;5053832;28;856;-60
2022/03/13 15:33:28;;;;;;;;;;;;;;;;;;5053481;28;1947;-60
2022/03/13 15:35:56;;;;;;;;;;;;;;;;;;5053803;28;875;-60
2022/03/13 15:38:21;;;;;;;;;;;;;;;;;;5053521;28;1607;-60
2022/03/13 15:40:47;;;;;;;;;;;;;;;;;;5053595;28;844;-59
2022/03/13 15:43:12;;;;;;;;;;;;;;;;;;5042203;28;1141;-60
2022/03/13 15:45:38;;;;;;;;;;;;;;;;;;5029785;28;1232;-61
2022/03/13 15:48:04;;;;;;;;;;;;;;;;;;5033951;28;1177;-60
2022/03/13 15:50:30;;;;;;;;;;;;;;;;;;5038881;28;1126;-60
2022/03/13 15:52:56;;;;;;;;;;;;;;;;;;5015379;28;1898;-61
2022/03/13 15:55:21;;;;;;;;;;;;;;;;;;5033819;28;833;-60
2022/03/13 15:57:46;;;;;;;;;;;;;;;;;;5033892;28;952;-60
2022/03/13 16:00:13;;;;;;;;;;;;;;;;;;5033380;28;1128;-60
2022/03/13 16:02:39;;;;;;;;;;;;;;;;;;4993918;28;826;-60
2022/03/13 16:05:06;;;;;;;;;;;;;;;;;;4994336;28;837;-61
2022/03/13 16:07:31;;;;;;;;;;;;;;;;;;4991640;28;1207;-61
2022/03/13 16:09:57;;;;;;;;;;;;;;;;;;4992907;28;952;-61
2022/03/13 16:12:28;;;;;;;;;;;;;;;;;;4994409;28;877;-61
2022/03/13 16:14:55;;;;;;;;;;;;;;;;;;4994050;28;1990;-61
2022/03/13 16:17:21;;;;;;;;;;;;;;;;;;4994461;28;845;-61
2022/03/13 16:19:49;;;;;;;;;;;;;;;;;;4993009;28;857;-61
2022/03/13 16:22:15;;;;;;;;;;;;;;;;;;4994271;28;951;-61
2022/03/13 16:24:41;;;;;;;;;;;;;;;;;;4993531;28;924;-61
2022/03/13 16:27:06;;;;;;;;;;;;;;;;;;4994009;28;897;-61
2022/03/13 16:29:32;;;;;;;;;;;;;;;;;;4993891;28;838;-61
2022/03/13 16:31:57;;;;;;;;;;;;;;;;;;4992419;28;885;-61
2022/03/13 16:34:22;;;;;;;;;;;;;;;;;;4993668;28;1971;-61
2022/03/13 16:36:47;;;;;;;;;;;;;;;;;;4992490;28;1260;-61
2022/03/13 16:39:13;;;;;;;;;;;;;;;;;;4993873;28;995;-61
2022/03/13 16:41:38;;;;;;;;;;;;;;;;;;4993217;28;891;-61
2022/03/13 16:44:04;;;;;;;;;;;;;;;;;;4992248;28;1195;-60
2022/03/13 16:46:29;;;;;;;;;;;;;;;;;;4993782;28;1050;-61
2022/03/13 16:48:55;;;;;;;;;;;;;;;;;;4991976;28;944;-61
2022/03/13 16:51:20;;;;;;;;;;;;;;;;;;4993635;28;821;-61
2022/03/13 16:53:46;;;;;;;;;;;;;;;;;;4993380;28;1906;-61
2022/03/13 16:56:11;;;;;;;;;;;;;;;;;;4993204;28;900;-61
2022/03/13 16:58:37;;;;;;;;;;;;;;;;;;4993351;28;861;-61
2022/03/13 17:01:02;;;;;;;;;;;;;;;;;;4981697;28;1031;-61
2022/03/13 17:03:27;;;;;;;;;;;;;;;;;;5012873;28;860;-61
2022/03/13 17:05:53;;;;;;;;;;;;;;;;;;5012903;28;833;-61
2022/03/13 17:08:18;;;;;;;;;;;;;;;;;;5013081;28;938;-61
2022/03/13 17:10:43;;;;;;;;;;;;;;;;;;5012774;28;820;-61
2022/03/13 17:13:08;;;;;;;;;;;;;;;;;;5012657;28;1973;-61